Terminal Aerodrome Forecast
Issued by NWS Jackson, KY

Home | Current Version | Previous Version | Graphics & Text | Print | Product List | Glossary On
Versions: 1 2 3 4 5 6 7 8 9 10 11
629
FTUS43 KJKL 061720
TAFLOZ
TAF
KLOZ 061720Z 0618/0718 23007KT P6SM SCT250
     FM062200 VRB03KT P6SM BKN050
     FM070200 VRB03KT P6SM FEW250=

USA.gov is the U.S. government's official web portal to all federal, state and local government web resources and services.